sensor_id;sensor_type;location;lat;lon;timestamp;temperature;humidity
38458;DHT22;24239;48.058;10.486;2022-09-21T00:01:29;4.60;99.90
38458;DHT22;24239;48.058;10.486;2022-09-21T00:03:57;4.60;99.90
38458;DHT22;24239;48.058;10.486;2022-09-21T00:06:25;4.50;99.90
38458;DHT22;24239;48.058;10.486;2022-09-21T00:08:51;4.50;99.90
38458;DHT22;24239;48.058;10.486;2022-09-21T00:11:21;4.50;99.90
38458;DHT22;24239;48.058;10.486;2022-09-21T00:13:57;4.50;99.90
38458;DHT22;24239;48.058;10.486;2022-09-21T00:16:26;4.50;99.90
38458;DHT22;24239;48.058;10.486;2022-09-21T00:18:52;4.60;99.90
38458;DHT22;24239;48.058;10.486;2022-09-21T00:21:18;4.40;99.90
38458;DHT22;24239;48.058;10.486;2022-09-21T00:23:44;4.40;99.90
38458;DHT22;24239;48.058;10.486;2022-09-21T00:26:16;4.30;99.90
38458;DHT22;24239;48.058;10.486;2022-09-21T00:28:43;4.20;99.90
38458;DHT22;24239;48.058;10.486;2022-09-21T00:31:11;4.20;99.90
38458;DHT22;24239;48.058;10.486;2022-09-21T00:33:39;4.20;99.90
38458;DHT22;24239;48.058;10.486;2022-09-21T00:36:07;4.20;99.90
38458;DHT22;24239;48.058;10.486;2022-09-21T00:38:35;4.10;99.90
38458;DHT22;24239;48.058;10.486;2022-09-21T00:41:01;4.20;99.90
38458;DHT22;24239;48.058;10.486;2022-09-21T00:43:27;4.20;99.90
38458;DHT22;24239;48.058;10.486;2022-09-21T00:46:02;4.10;99.90
38458;DHT22;24239;48.058;10.486;2022-09-21T00:48:28;4.00;99.90
38458;DHT22;24239;48.058;10.486;2022-09-21T00:50:58;4.10;99.90
38458;DHT22;24239;48.058;10.486;2022-09-21T00:53:26;3.90;99.90
38458;DHT22;24239;48.058;10.486;2022-09-21T00:55:55;4.00;99.90
38458;DHT22;24239;48.058;10.486;2022-09-21T00:58:29;4.00;99.90
38458;DHT22;24239;48.058;10.486;2022-09-21T01:00:57;3.90;99.90
38458;DHT22;24239;48.058;10.486;2022-09-21T01:03:24;3.90;99.90
38458;DHT22;24239;48.058;10.486;2022-09-21T01:05:50;3.80;99.90
38458;DHT22;24239;48.058;10.486;2022-09-21T01:08:17;3.80;99.90
38458;DHT22;24239;48.058;10.486;2022-09-21T01:11:06;3.70;99.90
38458;DHT22;24239;48.058;10.486;2022-09-21T01:16:47;3.60;99.90
38458;DHT22;24239;48.058;10.486;2022-09-21T01:19:51;3.70;99.90
38458;DHT22;24239;48.058;10.486;2022-09-21T01:27:56;3.60;99.90
38458;DHT22;24239;48.058;10.486;2022-09-21T01:30:24;3.60;99.90
38458;DHT22;24239;48.058;10.486;2022-09-21T01:33:14;3.60;99.90
38458;DHT22;24239;48.058;10.486;2022-09-21T01:35:51;3.50;99.90
38458;DHT22;24239;48.058;10.486;2022-09-21T01:39:10;3.60;99.90
38458;DHT22;24239;48.058;10.486;2022-09-21T01:41:19;3.50;99.90
38458;DHT22;24239;48.058;10.486;2022-09-21T01:43:53;3.50;99.90
38458;DHT22;24239;48.058;10.486;2022-09-21T01:46:21;3.50;99.90
38458;DHT22;24239;48.058;10.486;2022-09-21T01:48:51;3.50;99.90
38458;DHT22;24239;48.058;10.486;2022-09-21T01:51:19;3.50;99.90
38458;DHT22;24239;48.058;10.486;2022-09-21T01:56:35;3.50;99.90
38458;DHT22;24239;48.058;10.486;2022-09-21T01:59:18;3.40;99.90
38458;DHT22;24239;48.058;10.486;2022-09-21T02:01:53;3.30;99.90
38458;DHT22;24239;48.058;10.486;2022-09-21T02:04:20;3.50;99.90
38458;DHT22;24239;48.058;10.486;2022-09-21T02:06:48;3.30;99.90
38458;DHT22;24239;48.058;10.486;2022-09-21T02:09:17;3.30;99.90
38458;DHT22;24239;48.058;10.486;2022-09-21T02:11:44;3.20;99.90
38458;DHT22;24239;48.058;10.486;2022-09-21T02:14:16;3.20;99.90
38458;DHT22;24239;48.058;10.486;2022-09-21T02:25:17;3.20;99.90
38458;DHT22;24239;48.058;10.486;2022-09-21T02:28:09;3.20;99.90
38458;DHT22;24239;48.058;10.486;2022-09-21T02:30:37;3.10;99.90
38458;DHT22;24239;48.058;10.486;2022-09-21T02:33:12;3.10;99.90
38458;DHT22;24239;48.058;10.486;2022-09-21T02:38:53;3.00;99.90
38458;DHT22;24239;48.058;10.486;2022-09-21T02:41:29;2.90;99.90
38458;DHT22;24239;48.058;10.486;2022-09-21T02:44:31;2.90;99.90
38458;DHT22;24239;48.058;10.486;2022-09-21T02:47:14;2.90;99.90
38458;DHT22;24239;48.058;10.486;2022-09-21T02:49:45;2.90;99.90
38458;DHT22;24239;48.058;10.486;2022-09-21T02:52:13;2.90;99.90
38458;DHT22;24239;48.058;10.486;2022-09-21T02:54:42;2.80;99.90
38458;DHT22;24239;48.058;10.486;2022-09-21T02:57:09;2.80;99.90
38458;DHT22;24239;48.058;10.486;2022-09-21T02:59:38;2.80;99.90
38458;DHT22;24239;48.058;10.486;2022-09-21T03:02:04;2.70;99.90
38458;DHT22;24239;48.058;10.486;2022-09-21T03:04:32;2.80;99.90
38458;DHT22;24239;48.058;10.486;2022-09-21T03:06:57;2.60;99.90
38458;DHT22;24239;48.058;10.486;2022-09-21T03:09:23;2.60;99.90
38458;DHT22;24239;48.058;10.486;2022-09-21T03:11:52;2.70;99.90
38458;DHT22;24239;48.058;10.486;2022-09-21T03:14:19;2.60;99.90
38458;DHT22;24239;48.058;10.486;2022-09-21T03:16:44;2.50;99.90
38458;DHT22;24239;48.058;10.486;2022-09-21T03:19:10;2.60;99.90
38458;DHT22;24239;48.058;10.486;2022-09-21T03:21:37;2.50;99.90
38458;DHT22;24239;48.058;10.486;2022-09-21T03:24:05;2.50;99.90
38458;DHT22;24239;48.058;10.486;2022-09-21T03:26:31;2.50;99.90
38458;DHT22;24239;48.058;10.486;2022-09-21T03:28:57;2.50;99.90
38458;DHT22;24239;48.058;10.486;2022-09-21T03:31:23;2.40;99.90
38458;DHT22;24239;48.058;10.486;2022-09-21T03:33:49;2.40;99.90
38458;DHT22;24239;48.058;10.486;2022-09-21T03:36:15;2.40;99.90
38458;DHT22;24239;48.058;10.486;2022-09-21T03:38:40;2.40;99.90
38458;DHT22;24239;48.058;10.486;2022-09-21T03:41:07;2.30;99.90
38458;DHT22;24239;48.058;10.486;2022-09-21T03:43:33;2.40;99.90
38458;DHT22;24239;48.058;10.486;2022-09-21T03:45:58;2.30;99.90
38458;DHT22;24239;48.058;10.486;2022-09-21T03:48:24;2.50;99.90
38458;DHT22;24239;48.058;10.486;2022-09-21T03:50:50;2.30;99.90
38458;DHT22;24239;48.058;10.486;2022-09-21T03:53:16;2.40;99.90
38458;DHT22;24239;48.058;10.486;2022-09-21T03:55:42;2.30;99.90
38458;DHT22;24239;48.058;10.486;2022-09-21T03:58:08;2.20;99.90
38458;DHT22;24239;48.058;10.486;2022-09-21T04:00:35;2.20;99.90
38458;DHT22;24239;48.058;10.486;2022-09-21T04:03:01;2.20;99.90
38458;DHT22;24239;48.058;10.486;2022-09-21T04:05:27;2.10;99.90
38458;DHT22;24239;48.058;10.486;2022-09-21T04:07:54;2.10;99.90
38458;DHT22;24239;48.058;10.486;2022-09-21T04:10:21;2.20;99.90
38458;DHT22;24239;48.058;10.486;2022-09-21T04:12:52;2.10;99.90
38458;DHT22;24239;48.058;10.486;2022-09-21T04:15:21;2.20;99.90
38458;DHT22;24239;48.058;10.486;2022-09-21T04:17:51;2.10;99.90
38458;DHT22;24239;48.058;10.486;2022-09-21T04:20:18;2.20;99.90
38458;DHT22;24239;48.058;10.486;2022-09-21T04:22:44;2.10;99.90
38458;DHT22;24239;48.058;10.486;2022-09-21T04:25:12;2.10;99.90
38458;DHT22;24239;48.058;10.486;2022-09-21T04:27:38;2.10;99.90
38458;DHT22;24239;48.058;10.486;2022-09-21T04:30:05;2.10;99.90
38458;DHT22;24239;48.058;10.486;2022-09-21T04:32:31;2.00;99.90
38458;DHT22;24239;48.058;10.486;2022-09-21T04:34:57;2.10;99.90
38458;DHT22;24239;48.058;10.486;2022-09-21T04:37:23;2.10;99.90
38458;DHT22;24239;48.058;10.486;2022-09-21T04:39:49;2.00;99.90
38458;DHT22;24239;48.058;10.486;2022-09-21T04:42:15;2.00;99.90
38458;DHT22;24239;48.058;10.486;2022-09-21T04:44:40;2.00;99.90
38458;DHT22;24239;48.058;10.486;2022-09-21T04:47:06;2.00;99.90
38458;DHT22;24239;48.058;10.486;2022-09-21T04:49:34;2.10;99.90
38458;DHT22;24239;48.058;10.486;2022-09-21T04:52:03;2.00;99.90
38458;DHT22;24239;48.058;10.486;2022-09-21T04:54:28;2.00;99.90
38458;DHT22;24239;48.058;10.486;2022-09-21T04:56:54;2.00;99.90
38458;DHT22;24239;48.058;10.486;2022-09-21T04:59:20;2.00;99.90
38458;DHT22;24239;48.058;10.486;2022-09-21T05:01:46;2.00;99.90
38458;DHT22;24239;48.058;10.486;2022-09-21T05:04:11;2.00;99.90
38458;DHT22;24239;48.058;10.486;2022-09-21T05:06:37;2.00;99.90
38458;DHT22;24239;48.058;10.486;2022-09-21T05:09:03;2.10;99.90
38458;DHT22;24239;48.058;10.486;2022-09-21T05:11:47;1.90;99.90
38458;DHT22;24239;48.058;10.486;2022-09-21T05:14:13;2.10;99.90
38458;DHT22;24239;48.058;10.486;2022-09-21T05:16:39;2.00;99.90
38458;DHT22;24239;48.058;10.486;2022-09-21T05:19:04;2.10;99.90
38458;DHT22;24239;48.058;10.486;2022-09-21T05:21:30;2.10;99.90
38458;DHT22;24239;48.058;10.486;2022-09-21T05:23:56;2.10;99.90
38458;DHT22;24239;48.058;10.486;2022-09-21T05:26:23;2.10;99.90
38458;DHT22;24239;48.058;10.486;2022-09-21T05:28:49;2.10;99.90
38458;DHT22;24239;48.058;10.486;2022-09-21T05:39:58;2.50;99.90
38458;DHT22;24239;48.058;10.486;2022-09-21T05:42:27;2.50;99.90
38458;DHT22;24239;48.058;10.486;2022-09-21T05:44:56;2.60;99.90
38458;DHT22;24239;48.058;10.486;2022-09-21T05:56:02;2.80;99.90
38458;DHT22;24239;48.058;10.486;2022-09-21T06:01:25;3.00;99.90
38458;DHT22;24239;48.058;10.486;2022-09-21T06:03:55;3.00;99.90
38458;DHT22;24239;48.058;10.486;2022-09-21T06:06:22;3.00;99.90
38458;DHT22;24239;48.058;10.486;2022-09-21T06:08:48;3.20;99.90
38458;DHT22;24239;48.058;10.486;2022-09-21T06:11:14;3.20;99.90
38458;DHT22;24239;48.058;10.486;2022-09-21T06:13:40;3.20;99.90
38458;DHT22;24239;48.058;10.486;2022-09-21T06:16:06;3.30;99.90
38458;DHT22;24239;48.058;10.486;2022-09-21T06:18:38;3.30;99.90
38458;DHT22;24239;48.058;10.486;2022-09-21T06:21:05;3.30;99.90
38458;DHT22;24239;48.058;10.486;2022-09-21T06:23:31;3.40;99.90
38458;DHT22;24239;48.058;10.486;2022-09-21T06:25:57;3.60;99.90
38458;DHT22;24239;48.058;10.486;2022-09-21T06:28:24;3.60;99.90
38458;DHT22;24239;48.058;10.486;2022-09-21T06:30:54;3.70;99.90
38458;DHT22;24239;48.058;10.486;2022-09-21T06:33:25;3.90;99.90
38458;DHT22;24239;48.058;10.486;2022-09-21T06:35:56;4.00;99.90
38458;DHT22;24239;48.058;10.486;2022-09-21T06:38:23;4.20;99.90
38458;DHT22;24239;48.058;10.486;2022-09-21T06:40:50;4.20;99.90
38458;DHT22;24239;48.058;10.486;2022-09-21T06:43:17;4.30;99.90
38458;DHT22;24239;48.058;10.486;2022-09-21T06:45:43;4.40;99.90
38458;DHT22;24239;48.058;10.486;2022-09-21T06:48:09;4.60;99.90
38458;DHT22;24239;48.058;10.486;2022-09-21T06:50:37;4.80;99.90
38458;DHT22;24239;48.058;10.486;2022-09-21T06:53:03;4.80;99.90
38458;DHT22;24239;48.058;10.486;2022-09-21T06:55:30;5.00;99.90
38458;DHT22;24239;48.058;10.486;2022-09-21T06:58:02;5.00;99.90
38458;DHT22;24239;48.058;10.486;2022-09-21T07:00:28;5.20;99.90
38458;DHT22;24239;48.058;10.486;2022-09-21T07:02:55;5.30;99.90
38458;DHT22;24239;48.058;10.486;2022-09-21T07:05:21;5.50;99.90
38458;DHT22;24239;48.058;10.486;2022-09-21T07:07:47;5.60;99.90
38458;DHT22;24239;48.058;10.486;2022-09-21T07:10:13;5.80;99.90
38458;DHT22;24239;48.058;10.486;2022-09-21T07:12:38;5.90;99.90
38458;DHT22;24239;48.058;10.486;2022-09-21T07:15:09;5.90;99.90
38458;DHT22;24239;48.058;10.486;2022-09-21T07:17:37;6.00;99.90
38458;DHT22;24239;48.058;10.486;2022-09-21T07:20:07;6.20;99.90
38458;DHT22;24239;48.058;10.486;2022-09-21T07:22:33;6.30;99.90
38458;DHT22;24239;48.058;10.486;2022-09-21T07:24:59;6.40;99.90
38458;DHT22;24239;48.058;10.486;2022-09-21T07:27:28;6.60;99.90
38458;DHT22;24239;48.058;10.486;2022-09-21T07:29:54;6.70;99.90
38458;DHT22;24239;48.058;10.486;2022-09-21T07:32:23;6.90;99.90
38458;DHT22;24239;48.058;10.486;2022-09-21T07:34:50;7.10;99.90
38458;DHT22;24239;48.058;10.486;2022-09-21T07:37:24;7.30;99.90
38458;DHT22;24239;48.058;10.486;2022-09-21T07:39:51;7.60;99.90
38458;DHT22;24239;48.058;10.486;2022-09-21T07:42:18;7.70;99.90
38458;DHT22;24239;48.058;10.486;2022-09-21T07:44:46;7.90;99.90
38458;DHT22;24239;48.058;10.486;2022-09-21T07:47:13;7.90;99.90
38458;DHT22;24239;48.058;10.486;2022-09-21T07:49:39;8.10;99.90
38458;DHT22;24239;48.058;10.486;2022-09-21T07:52:08;8.30;99.90
38458;DHT22;24239;48.058;10.486;2022-09-21T07:54:35;8.40;99.90
38458;DHT22;24239;48.058;10.486;2022-09-21T07:57:01;8.40;99.90
38458;DHT22;24239;48.058;10.486;2022-09-21T07:59:46;8.50;99.90
38458;DHT22;24239;48.058;10.486;2022-09-21T08:02:12;8.50;99.90
38458;DHT22;24239;48.058;10.486;2022-09-21T08:04:37;8.60;99.90
38458;DHT22;24239;48.058;10.486;2022-09-21T08:07:03;8.70;99.90
38458;DHT22;24239;48.058;10.486;2022-09-21T08:09:29;8.80;99.90
38458;DHT22;24239;48.058;10.486;2022-09-21T08:11:55;8.90;99.90
38458;DHT22;24239;48.058;10.486;2022-09-21T08:14:28;8.90;99.90
38458;DHT22;24239;48.058;10.486;2022-09-21T08:17:00;8.90;99.90
38458;DHT22;24239;48.058;10.486;2022-09-21T08:19:26;9.00;99.90
38458;DHT22;24239;48.058;10.486;2022-09-21T08:21:52;9.10;99.90
38458;DHT22;24239;48.058;10.486;2022-09-21T08:24:19;9.10;99.90
38458;DHT22;24239;48.058;10.486;2022-09-21T08:26:45;9.20;99.90
38458;DHT22;24239;48.058;10.486;2022-09-21T08:29:11;9.20;99.90
38458;DHT22;24239;48.058;10.486;2022-09-21T08:31:38;9.30;99.90
38458;DHT22;24239;48.058;10.486;2022-09-21T08:34:04;9.50;99.90
38458;DHT22;24239;48.058;10.486;2022-09-21T08:36:30;9.50;99.90
38458;DHT22;24239;48.058;10.486;2022-09-21T08:38:56;9.40;99.90
38458;DHT22;24239;48.058;10.486;2022-09-21T08:44:03;9.60;99.90
38458;DHT22;24239;48.058;10.486;2022-09-21T08:46:31;9.50;99.90
38458;DHT22;24239;48.058;10.486;2022-09-21T08:51:30;9.90;99.90
38458;DHT22;24239;48.058;10.486;2022-09-21T08:54:12;9.80;99.90
38458;DHT22;24239;48.058;10.486;2022-09-21T08:56:39;10.00;99.90
38458;DHT22;24239;48.058;10.486;2022-09-21T08:59:11;10.00;99.90
38458;DHT22;24239;48.058;10.486;2022-09-21T09:15:43;10.50;99.90
38458;DHT22;24239;48.058;10.486;2022-09-21T09:20:55;10.70;99.90
38458;DHT22;24239;48.058;10.486;2022-09-21T09:23:30;10.90;99.90
38458;DHT22;24239;48.058;10.486;2022-09-21T09:26:18;10.80;99.90
38458;DHT22;24239;48.058;10.486;2022-09-21T09:28:59;10.80;99.90
38458;DHT22;24239;48.058;10.486;2022-09-21T09:31:32;10.90;99.90
38458;DHT22;24239;48.058;10.486;2022-09-21T09:36:59;10.90;99.90
38458;DHT22;24239;48.058;10.486;2022-09-21T09:39:28;10.90;99.90
38458;DHT22;24239;48.058;10.486;2022-09-21T09:50:17;11.50;99.90
38458;DHT22;24239;48.058;10.486;2022-09-21T09:52:48;11.60;99.90
38458;DHT22;24239;48.058;10.486;2022-09-21T09:55:21;11.60;99.90
38458;DHT22;24239;48.058;10.486;2022-09-21T09:57:55;11.60;99.90
38458;DHT22;24239;48.058;10.486;2022-09-21T10:00:21;11.50;99.90
38458;DHT22;24239;48.058;10.486;2022-09-21T10:02:50;11.50;99.90
38458;DHT22;24239;48.058;10.486;2022-09-21T10:07:50;11.70;99.90
38458;DHT22;24239;48.058;10.486;2022-09-21T10:10:32;11.80;99.90
38458;DHT22;24239;48.058;10.486;2022-09-21T10:23:56;12.00;99.90
38458;DHT22;24239;48.058;10.486;2022-09-21T10:26:29;12.20;99.90
38458;DHT22;24239;48.058;10.486;2022-09-21T10:34:25;12.20;99.90
38458;DHT22;24239;48.058;10.486;2022-09-21T10:36:54;12.20;99.90
38458;DHT22;24239;48.058;10.486;2022-09-21T10:39:33;12.30;99.90
38458;DHT22;24239;48.058;10.486;2022-09-21T10:42:14;12.30;99.90
38458;DHT22;24239;48.058;10.486;2022-09-21T10:44:51;12.30;99.90
38458;DHT22;24239;48.058;10.486;2022-09-21T10:47:19;12.30;99.90
38458;DHT22;24239;48.058;10.486;2022-09-21T10:49:51;12.50;99.90
38458;DHT22;24239;48.058;10.486;2022-09-21T10:52:20;12.60;99.90
38458;DHT22;24239;48.058;10.486;2022-09-21T10:54:57;12.80;99.90
38458;DHT22;24239;48.058;10.486;2022-09-21T10:57:25;12.90;99.90
38458;DHT22;24239;48.058;10.486;2022-09-21T10:59:52;12.80;99.90
38458;DHT22;24239;48.058;10.486;2022-09-21T11:02:25;12.70;99.90
38458;DHT22;24239;48.058;10.486;2022-09-21T11:07:38;13.00;99.90
38458;DHT22;24239;48.058;10.486;2022-09-21T11:10:20;13.20;99.90
38458;DHT22;24239;48.058;10.486;2022-09-21T11:13:01;13.10;99.90
38458;DHT22;24239;48.058;10.486;2022-09-21T11:20:57;13.10;99.90
38458;DHT22;24239;48.058;10.486;2022-09-21T11:26:42;13.60;99.90
38458;DHT22;24239;48.058;10.486;2022-09-21T11:29:16;13.90;99.90
38458;DHT22;24239;48.058;10.486;2022-09-21T11:45:00;12.80;99.90
38458;DHT22;24239;48.058;10.486;2022-09-21T11:47:52;12.80;99.90
38458;DHT22;24239;48.058;10.486;2022-09-21T11:58:27;12.70;99.90
38458;DHT22;24239;48.058;10.486;2022-09-21T12:20:45;12.90;99.90
38458;DHT22;24239;48.058;10.486;2022-09-21T12:23:25;13.10;99.90
38458;DHT22;24239;48.058;10.486;2022-09-21T12:25:56;13.20;99.90
38458;DHT22;24239;48.058;10.486;2022-09-21T12:28:35;13.20;99.90
38458;DHT22;24239;48.058;10.486;2022-09-21T12:31:14;13.30;99.90
38458;DHT22;24239;48.058;10.486;2022-09-21T12:33:52;13.50;99.90
38458;DHT22;24239;48.058;10.486;2022-09-21T12:36:35;13.50;99.90
38458;DHT22;24239;48.058;10.486;2022-09-21T12:39:14;13.50;99.90
38458;DHT22;24239;48.058;10.486;2022-09-21T12:42:00;13.50;99.90
38458;DHT22;24239;48.058;10.486;2022-09-21T12:47:52;13.90;99.90
38458;DHT22;24239;48.058;10.486;2022-09-21T12:50:35;13.70;99.90
38458;DHT22;24239;48.058;10.486;2022-09-21T12:53:03;13.50;99.90
38458;DHT22;24239;48.058;10.486;2022-09-21T12:55:39;13.50;99.90
38458;DHT22;24239;48.058;10.486;2022-09-21T12:58:15;13.60;99.90
38458;DHT22;24239;48.058;10.486;2022-09-21T13:09:05;13.80;99.90
38458;DHT22;24239;48.058;10.486;2022-09-21T13:11:34;13.90;99.90
38458;DHT22;24239;48.058;10.486;2022-09-21T13:14:02;13.90;99.90
38458;DHT22;24239;48.058;10.486;2022-09-21T13:18:59;14.00;99.90
38458;DHT22;24239;48.058;10.486;2022-09-21T13:21:31;14.10;99.90
38458;DHT22;24239;48.058;10.486;2022-09-21T13:23:59;14.10;99.90
38458;DHT22;24239;48.058;10.486;2022-09-21T13:29:29;13.70;99.90
38458;DHT22;24239;48.058;10.486;2022-09-21T13:37:27;13.40;99.90
38458;DHT22;24239;48.058;10.486;2022-09-21T13:47:46;13.00;99.90
38458;DHT22;24239;48.058;10.486;2022-09-21T13:52:55;13.40;99.90
38458;DHT22;24239;48.058;10.486;2022-09-21T13:55:35;13.50;99.90
38458;DHT22;24239;48.058;10.486;2022-09-21T13:58:06;13.70;99.90
38458;DHT22;24239;48.058;10.486;2022-09-21T14:00:53;13.70;99.90
38458;DHT22;24239;48.058;10.486;2022-09-21T14:05:53;13.80;99.90
38458;DHT22;24239;48.058;10.486;2022-09-21T14:08:25;14.00;99.90
38458;DHT22;24239;48.058;10.486;2022-09-21T14:11:23;14.00;99.90
38458;DHT22;24239;48.058;10.486;2022-09-21T14:16:52;13.80;99.90
38458;DHT22;24239;48.058;10.486;2022-09-21T14:24:45;13.70;99.90
38458;DHT22;24239;48.058;10.486;2022-09-21T14:32:33;13.80;99.90
38458;DHT22;24239;48.058;10.486;2022-09-21T14:35:07;13.70;99.90
38458;DHT22;24239;48.058;10.486;2022-09-21T14:37:43;13.80;99.90
38458;DHT22;24239;48.058;10.486;2022-09-21T14:40:23;13.70;99.90
38458;DHT22;24239;48.058;10.486;2022-09-21T14:42:51;13.70;99.90
38458;DHT22;24239;48.058;10.486;2022-09-21T14:45:25;13.80;99.90
38458;DHT22;24239;48.058;10.486;2022-09-21T14:50:41;13.80;99.90
38458;DHT22;24239;48.058;10.486;2022-09-21T14:53:27;13.80;99.90
38458;DHT22;24239;48.058;10.486;2022-09-21T15:17:58;13.50;99.90
38458;DHT22;24239;48.058;10.486;2022-09-21T15:20:27;13.50;99.90
38458;DHT22;24239;48.058;10.486;2022-09-21T15:22:58;13.50;99.90
38458;DHT22;24239;48.058;10.486;2022-09-21T15:25:31;13.40;99.90
38458;DHT22;24239;48.058;10.486;2022-09-21T15:27:57;13.40;99.90
38458;DHT22;24239;48.058;10.486;2022-09-21T15:30:31;13.30;99.90
38458;DHT22;24239;48.058;10.486;2022-09-21T15:33:00;13.30;99.90
38458;DHT22;24239;48.058;10.486;2022-09-21T15:35:32;13.40;99.90
38458;DHT22;24239;48.058;10.486;2022-09-21T15:37:59;13.30;99.90
38458;DHT22;24239;48.058;10.486;2022-09-21T15:40:26;13.20;99.90
38458;DHT22;24239;48.058;10.486;2022-09-21T15:45:45;13.10;99.90
38458;DHT22;24239;48.058;10.486;2022-09-21T15:48:11;13.10;99.90
38458;DHT22;24239;48.058;10.486;2022-09-21T15:50:39;13.10;99.90
38458;DHT22;24239;48.058;10.486;2022-09-21T15:53:21;13.10;99.90
38458;DHT22;24239;48.058;10.486;2022-09-21T15:55:48;13.10;99.90
38458;DHT22;24239;48.058;10.486;2022-09-21T15:58:33;13.10;99.90
38458;DHT22;24239;48.058;10.486;2022-09-21T16:01:20;13.00;99.90
38458;DHT22;24239;48.058;10.486;2022-09-21T16:04:00;13.00;99.90
38458;DHT22;24239;48.058;10.486;2022-09-21T16:06:40;12.90;99.90
38458;DHT22;24239;48.058;10.486;2022-09-21T16:11:56;12.80;99.90
38458;DHT22;24239;48.058;10.486;2022-09-21T16:14:22;12.80;99.90
38458;DHT22;24239;48.058;10.486;2022-09-21T16:22:41;12.60;99.90
38458;DHT22;24239;48.058;10.486;2022-09-21T16:27:53;12.50;99.90
38458;DHT22;24239;48.058;10.486;2022-09-21T16:38:51;12.30;99.90
38458;DHT22;24239;48.058;10.486;2022-09-21T16:41:31;12.10;99.90
38458;DHT22;24239;48.058;10.486;2022-09-21T16:43:58;12.00;99.90
38458;DHT22;24239;48.058;10.486;2022-09-21T16:46:25;11.90;99.90
38458;DHT22;24239;48.058;10.486;2022-09-21T16:48:52;11.80;99.90
38458;DHT22;24239;48.058;10.486;2022-09-21T16:51:24;11.70;99.90
38458;DHT22;24239;48.058;10.486;2022-09-21T16:53:51;11.50;99.90
38458;DHT22;24239;48.058;10.486;2022-09-21T16:56:16;11.40;99.90
38458;DHT22;24239;48.058;10.486;2022-09-21T16:58:48;11.30;99.90
38458;DHT22;24239;48.058;10.486;2022-09-21T17:01:16;11.20;99.90
38458;DHT22;24239;48.058;10.486;2022-09-21T17:03:43;11.10;99.90
38458;DHT22;24239;48.058;10.486;2022-09-21T17:06:16;11.00;99.90
38458;DHT22;24239;48.058;10.486;2022-09-21T17:08:43;10.90;99.90
38458;DHT22;24239;48.058;10.486;2022-09-21T17:11:13;10.80;99.90
38458;DHT22;24239;48.058;10.486;2022-09-21T17:13:48;10.70;99.90
38458;DHT22;24239;48.058;10.486;2022-09-21T17:16:15;10.60;99.90
38458;DHT22;24239;48.058;10.486;2022-09-21T17:18:46;10.60;99.90
38458;DHT22;24239;48.058;10.486;2022-09-21T17:21:13;10.50;99.90
38458;DHT22;24239;48.058;10.486;2022-09-21T17:23:39;10.30;99.90
38458;DHT22;24239;48.058;10.486;2022-09-21T17:26:29;10.20;99.90
38458;DHT22;24239;48.058;10.486;2022-09-21T17:28:56;10.00;99.90
38458;DHT22;24239;48.058;10.486;2022-09-21T17:31:23;9.90;99.90
38458;DHT22;24239;48.058;10.486;2022-09-21T17:33:49;9.80;99.90
38458;DHT22;24239;48.058;10.486;2022-09-21T17:36:17;9.60;99.90
38458;DHT22;24239;48.058;10.486;2022-09-21T17:38:43;9.60;99.90
38458;DHT22;24239;48.058;10.486;2022-09-21T17:41:33;9.40;99.90
38458;DHT22;24239;48.058;10.486;2022-09-21T17:47:02;9.30;99.90
38458;DHT22;24239;48.058;10.486;2022-09-21T17:49:33;9.10;99.90
38458;DHT22;24239;48.058;10.486;2022-09-21T17:51:59;9.00;99.90
38458;DHT22;24239;48.058;10.486;2022-09-21T17:54:44;8.90;99.90
38458;DHT22;24239;48.058;10.486;2022-09-21T18:00:04;8.60;99.90
38458;DHT22;24239;48.058;10.486;2022-09-21T18:02:31;8.60;99.90
38458;DHT22;24239;48.058;10.486;2022-09-21T18:05:02;8.50;99.90
38458;DHT22;24239;48.058;10.486;2022-09-21T18:07:28;8.40;99.90
38458;DHT22;24239;48.058;10.486;2022-09-21T18:09:54;8.40;99.90
38458;DHT22;24239;48.058;10.486;2022-09-21T18:12:48;8.40;99.90
38458;DHT22;24239;48.058;10.486;2022-09-21T18:26:31;7.90;99.90
38458;DHT22;24239;48.058;10.486;2022-09-21T18:28:58;7.80;99.90
38458;DHT22;24239;48.058;10.486;2022-09-21T18:31:42;7.70;99.90
38458;DHT22;24239;48.058;10.486;2022-09-21T18:36:54;7.70;99.90
38458;DHT22;24239;48.058;10.486;2022-09-21T18:44:59;7.50;99.90
38458;DHT22;24239;48.058;10.486;2022-09-21T18:52:44;7.40;99.90
38458;DHT22;24239;48.058;10.486;2022-09-21T18:55:21;7.30;99.90
38458;DHT22;24239;48.058;10.486;2022-09-21T18:57:48;7.20;99.90
38458;DHT22;24239;48.058;10.486;2022-09-21T19:00:17;7.20;99.90
38458;DHT22;24239;48.058;10.486;2022-09-21T19:02:43;7.20;99.90
38458;DHT22;24239;48.058;10.486;2022-09-21T19:05:13;7.20;99.90
38458;DHT22;24239;48.058;10.486;2022-09-21T19:10:47;7.10;99.90
38458;DHT22;24239;48.058;10.486;2022-09-21T19:18:43;7.00;99.90
38458;DHT22;24239;48.058;10.486;2022-09-21T19:21:13;7.00;99.90
38458;DHT22;24239;48.058;10.486;2022-09-21T19:29:45;6.90;99.90
38458;DHT22;24239;48.058;10.486;2022-09-21T19:32:17;6.90;99.90
38458;DHT22;24239;48.058;10.486;2022-09-21T19:34:45;6.80;99.90
38458;DHT22;24239;48.058;10.486;2022-09-21T19:37:10;6.70;99.90
38458;DHT22;24239;48.058;10.486;2022-09-21T19:39:37;6.70;99.90
38458;DHT22;24239;48.058;10.486;2022-09-21T19:45:02;6.70;99.90
38458;DHT22;24239;48.058;10.486;2022-09-21T19:47:34;6.60;99.90
38458;DHT22;24239;48.058;10.486;2022-09-21T19:50:23;6.70;99.90
38458;DHT22;24239;48.058;10.486;2022-09-21T19:52:51;6.50;99.90
38458;DHT22;24239;48.058;10.486;2022-09-21T19:55:20;6.50;99.90
38458;DHT22;24239;48.058;10.486;2022-09-21T19:58:05;6.50;99.90
38458;DHT22;24239;48.058;10.486;2022-09-21T20:00:54;6.40;99.90
38458;DHT22;24239;48.058;10.486;2022-09-21T20:03:36;6.40;99.90
38458;DHT22;24239;48.058;10.486;2022-09-21T20:06:15;6.30;99.90
38458;DHT22;24239;48.058;10.486;2022-09-21T20:09:28;6.30;99.90
38458;DHT22;24239;48.058;10.486;2022-09-21T20:12:03;6.30;99.90
38458;DHT22;24239;48.058;10.486;2022-09-21T20:17:01;6.10;99.90
38458;DHT22;24239;48.058;10.486;2022-09-21T20:19:42;6.20;99.90
38458;DHT22;24239;48.058;10.486;2022-09-21T20:22:16;6.00;99.90
38458;DHT22;24239;48.058;10.486;2022-09-21T20:24:53;6.00;99.90
38458;DHT22;24239;48.058;10.486;2022-09-21T20:29:47;5.90;99.90
38458;DHT22;24239;48.058;10.486;2022-09-21T20:32:12;5.90;99.90
38458;DHT22;24239;48.058;10.486;2022-09-21T20:34:38;5.90;99.90
38458;DHT22;24239;48.058;10.486;2022-09-21T20:37:12;5.90;99.90
38458;DHT22;24239;48.058;10.486;2022-09-21T20:39:38;5.80;99.90
38458;DHT22;24239;48.058;10.486;2022-09-21T20:42:04;5.70;99.90
38458;DHT22;24239;48.058;10.486;2022-09-21T20:44:30;5.70;99.90